Time;durP1;ratioP1;P1;durP2;ratioP2;P2;SDS_P1;SDS_P2;PMS_P1;PMS_P2;Temp;Humidity;BMP_temperature;BMP_pressure;BME280_temperature;BME280_humidity;BME280_pressure;Samples;Min_cycle;Max_cycle;Signal;HPM_P1;HPM_P2
2022/10/08 00:00:52;;;;;;;7.55;2.80;;;12.90;99.90;;;;;;5017639;28;20085;-73
2022/10/08 00:03:19;;;;;;;18.23;3.08;;;12.90;99.90;;;;;;5017525;28;20054;-73
2022/10/08 00:06:14;;;;;;;11.80;3.13;;;12.90;99.90;;;;;;5017430;28;20038;-72
2022/10/08 00:08:42;;;;;;;8.82;2.70;;;12.80;99.90;;;;;;4995997;28;20062;-72
2022/10/08 00:11:15;;;;;;;6.88;2.70;;;12.80;99.90;;;;;;5017650;28;20046;-71
2022/10/08 00:13:41;;;;;;;13.18;3.88;;;12.90;99.90;;;;;;5003170;28;20057;-73
2022/10/08 00:16:26;;;;;;;9.80;2.55;;;12.90;99.90;;;;;;4998321;28;20093;-72
2022/10/08 00:18:54;;;;;;;12.57;2.75;;;12.80;99.90;;;;;;5017252;28;20046;-72
2022/10/08 00:21:19;;;;;;;10.15;2.97;;;12.80;99.90;;;;;;5017457;28;20355;-72
2022/10/08 00:23:46;;;;;;;14.45;3.17;;;12.70;99.90;;;;;;5017327;28;20057;-72
2022/10/08 00:26:13;;;;;;;8.57;3.35;;;12.80;99.90;;;;;;5017353;28;20050;-72
2022/10/08 00:28:42;;;;;;;9.35;2.55;;;12.70;99.90;;;;;;5017062;28;20088;-71
2022/10/08 00:31:11;;;;;;;8.55;2.50;;;12.70;99.90;;;;;;5016630;28;20041;-72
2022/10/08 00:33:37;;;;;;;9.52;3.05;;;12.80;99.90;;;;;;5017050;28;20049;-73
2022/10/08 00:36:08;;;;;;;10.73;2.45;;;12.70;99.90;;;;;;5006955;28;20042;-73
2022/10/08 00:38:35;;;;;;;6.60;2.30;;;12.70;99.90;;;;;;4980404;28;20050;-72
2022/10/08 00:41:01;;;;;;;10.77;2.28;;;12.70;99.90;;;;;;4997356;28;20482;-73
2022/10/08 00:43:42;;;;;;;9.73;2.78;;;12.70;99.90;;;;;;4997580;28;20073;-71
2022/10/08 00:46:27;;;;;;;12.75;3.35;;;12.70;99.90;;;;;;4997121;28;20093;-71
2022/10/08 00:49:05;;;;;;;4.95;2.05;;;12.70;99.90;;;;;;5008294;28;20487;-72
2022/10/08 00:51:32;;;;;;;8.95;2.25;;;12.70;99.90;;;;;;5016805;28;20081;-70
2022/10/08 00:54:01;;;;;;;7.15;1.95;;;12.70;99.90;;;;;;5016495;28;20052;-72
2022/10/08 00:56:30;;;;;;;10.15;2.13;;;12.70;99.90;;;;;;5016533;28;20054;-72
2022/10/08 00:58:56;;;;;;;8.10;1.85;;;12.60;99.90;;;;;;5016717;28;20046;-73
2022/10/08 01:01:22;;;;;;;9.52;2.53;;;12.70;99.90;;;;;;5015946;28;20081;-72
2022/10/08 01:03:47;;;;;;;6.50;1.80;;;12.80;99.90;;;;;;5016633;28;20084;-72
2022/10/08 01:06:24;;;;;;;7.32;2.15;;;12.70;99.90;;;;;;5016305;28;20050;-73
2022/10/08 01:09:02;;;;;;;10.65;2.15;;;12.70;99.90;;;;;;5016728;28;20041;-71
2022/10/08 01:11:59;;;;;;;6.70;2.13;;;12.70;99.90;;;;;;5016462;28;20061;-71
2022/10/08 01:14:45;;;;;;;6.90;2.15;;;12.70;99.90;;;;;;5016297;28;20060;-71
2022/10/08 01:17:26;;;;;;;8.70;2.33;;;12.60;99.90;;;;;;5015677;28;20482;-71
2022/10/08 01:20:13;;;;;;;5.93;2.00;;;12.60;99.90;;;;;;5015755;28;20383;-72
2022/10/08 01:23:14;;;;;;;6.25;1.73;;;12.60;99.90;;;;;;5016210;28;20045;-72
2022/10/08 01:25:46;;;;;;;10.43;2.70;;;12.50;99.90;;;;;;5016309;28;20049;-72
2022/10/08 01:28:37;;;;;;;9.75;2.15;;;12.50;99.90;;;;;;5016353;28;20050;-71
2022/10/08 01:31:17;;;;;;;9.38;2.45;;;12.50;99.90;;;;;;5015499;28;20117;-71
2022/10/08 01:33:59;;;;;;;6.35;1.50;;;12.50;99.90;;;;;;5016355;28;20045;-73
2022/10/08 01:36:27;;;;;;;6.18;1.98;;;12.50;99.90;;;;;;5015847;28;20454;-72
2022/10/08 01:38:58;;;;;;;7.72;2.15;;;12.50;99.90;;;;;;4998570;28;20064;-73
2022/10/08 01:41:26;;;;;;;4.35;2.17;;;12.50;99.90;;;;;;4998787;28;20061;-73
2022/10/08 01:44:05;;;;;;;7.68;1.77;;;12.40;99.90;;;;;;5015852;28;20061;-71
2022/10/08 01:46:32;;;;;;;6.80;1.52;;;12.40;99.90;;;;;;5015691;28;20042;-73
2022/10/08 01:49:07;;;;;;;6.45;1.80;;;12.40;99.90;;;;;;5015689;28;20120;-70
2022/10/08 01:51:46;;;;;;;5.40;2.22;;;12.40;99.90;;;;;;5015699;28;20597;-73
2022/10/08 01:54:15;;;;;;;5.53;1.55;;;12.40;99.90;;;;;;4998264;28;20108;-72
2022/10/08 01:56:43;;;;;;;5.32;1.90;;;12.30;99.90;;;;;;5016041;28;20057;-72
2022/10/08 01:59:23;;;;;;;6.53;1.42;;;12.30;99.90;;;;;;5015095;28;20037;-73
2022/10/08 02:02:02;;;;;;;9.25;2.00;;;12.40;99.90;;;;;;5015532;28;20057;-71
2022/10/08 02:04:33;;;;;;;8.82;2.47;;;12.30;99.90;;;;;;5015402;28;20057;-71
2022/10/08 02:07:02;;;;;;;4.32;1.55;;;12.20;99.90;;;;;;4998495;28;20058;-72
2022/10/08 02:09:31;;;;;;;7.93;1.90;;;12.10;99.90;;;;;;5015384;28;20045;-71
2022/10/08 02:11:56;;;;;;;5.88;1.67;;;12.10;99.90;;;;;;5015417;28;20053;-73
2022/10/08 02:14:25;;;;;;;3.53;1.38;;;12.00;99.90;;;;;;5014958;28;20180;-72
2022/10/08 02:17:08;;;;;;;9.40;1.83;;;11.90;99.90;;;;;;5015366;28;20046;-71
2022/10/08 02:19:55;;;;;;;5.80;2.05;;;11.80;99.90;;;;;;5015018;28;20096;-72
2022/10/08 02:22:25;;;;;;;8.00;1.98;;;11.70;99.90;;;;;;5015534;28;20124;-72
2022/10/08 02:25:14;;;;;;;7.05;2.40;;;11.60;99.90;;;;;;5015237;28;20042;-72
2022/10/08 02:28:25;;;;;;;6.60;2.00;;;11.60;99.90;;;;;;5001591;28;20116;-72
2022/10/08 02:30:54;;;;;;;8.07;2.33;;;11.50;99.90;;;;;;5014154;28;20425;-74
2022/10/08 02:33:34;;;;;;;6.43;1.88;;;11.50;99.90;;;;;;5015034;28;20432;-72
2022/10/08 02:36:03;;;;;;;3.88;1.80;;;11.40;99.90;;;;;;5014994;28;20108;-73
2022/10/08 02:38:35;;;;;;;6.45;2.03;;;11.30;99.90;;;;;;5015426;28;20410;-72
2022/10/08 02:41:03;;;;;;;6.80;2.08;;;11.30;99.90;;;;;;5015103;28;20089;-73
2022/10/08 02:43:33;;;;;;;5.75;2.28;;;11.30;99.90;;;;;;4993902;28;20125;-72
2022/10/08 02:46:14;;;;;;;9.80;2.47;;;11.20;99.90;;;;;;4978417;28;20065;-72
2022/10/08 02:48:53;;;;;;;10.90;2.50;;;11.10;99.90;;;;;;4995726;28;20049;-72
2022/10/08 02:51:20;;;;;;;7.68;2.25;;;11.10;99.90;;;;;;4995323;28;20093;-72
2022/10/08 02:53:49;;;;;;;11.32;3.47;;;11.10;99.90;;;;;;4995383;28;20383;-71
2022/10/08 02:56:24;;;;;;;5.38;2.10;;;11.00;99.90;;;;;;4995627;28;20081;-71
2022/10/08 02:58:50;;;;;;;7.18;2.65;;;11.00;99.90;;;;;;5014569;28;20490;-71
2022/10/08 03:01:31;;;;;;;8.48;2.83;;;11.00;99.90;;;;;;5014659;28;20410;-72
2022/10/08 03:04:02;;;;;;;9.52;2.78;;;10.90;99.90;;;;;;4997973;28;20049;-72
2022/10/08 03:06:30;;;;;;;9.40;2.92;;;10.90;99.90;;;;;;5014782;28;20042;-72
2022/10/08 03:08:58;;;;;;;8.90;2.80;;;10.90;99.90;;;;;;5014970;28;20446;-71
2022/10/08 03:11:24;;;;;;;8.60;2.72;;;10.80;99.90;;;;;;5013912;28;20050;-72
2022/10/08 03:13:51;;;;;;;8.63;2.60;;;10.80;99.90;;;;;;5014775;28;20413;-72
2022/10/08 03:16:21;;;;;;;9.35;3.13;;;10.80;99.90;;;;;;5014661;28;20081;-71
2022/10/08 03:18:46;;;;;;;9.07;2.90;;;10.70;99.90;;;;;;5014280;28;20470;-72
2022/10/08 03:21:13;;;;;;;7.13;3.30;;;10.70;99.90;;;;;;5014814;28;20041;-71
2022/10/08 03:23:39;;;;;;;8.20;2.90;;;10.70;99.90;;;;;;5014240;28;20085;-71
2022/10/08 03:26:05;;;;;;;9.63;3.08;;;10.70;99.90;;;;;;5014621;28;20069;-71
2022/10/08 03:28:30;;;;;;;9.80;3.40;;;10.70;99.90;;;;;;4997720;28;20053;-72
2022/10/08 03:30:56;;;;;;;8.20;3.28;;;10.70;99.90;;;;;;5014681;28;20104;-72
2022/10/08 03:33:22;;;;;;;7.97;2.83;;;10.70;99.90;;;;;;5014436;28;20053;-72
2022/10/08 03:35:48;;;;;;;9.95;3.25;;;10.60;99.90;;;;;;5014820;28;20096;-73
2022/10/08 03:38:14;;;;;;;11.02;4.13;;;10.70;99.90;;;;;;5014628;28;20142;-72
2022/10/08 03:40:41;;;;;;;10.23;3.50;;;10.70;99.90;;;;;;5014353;28;20033;-72
2022/10/08 03:43:07;;;;;;;14.13;4.75;;;10.70;99.90;;;;;;5015779;28;20386;-72
2022/10/08 03:45:32;;;;;;;10.07;4.03;;;10.80;99.90;;;;;;5017901;28;20045;-72
2022/10/08 03:47:58;;;;;;;8.13;3.13;;;10.80;99.90;;;;;;4997334;28;20042;-72
2022/10/08 03:50:23;;;;;;;5.97;3.40;;;10.90;99.90;;;;;;5012602;28;20042;-73
2022/10/08 03:52:49;;;;;;;11.77;4.13;;;10.90;99.90;;;;;;5017961;28;20378;-72
2022/10/08 03:55:14;;;;;;;12.43;3.33;;;11.00;99.90;;;;;;5017725;28;20042;-72
2022/10/08 03:57:40;;;;;;;11.85;3.55;;;11.00;99.90;;;;;;5000391;28;20048;-73
2022/10/08 04:00:06;;;;;;;11.65;4.10;;;11.10;99.90;;;;;;5017447;28;20050;-71
2022/10/08 04:02:32;;;;;;;12.95;3.67;;;11.10;99.90;;;;;;5017598;28;20049;-72
2022/10/08 04:04:57;;;;;;;12.10;3.13;;;11.10;99.90;;;;;;5017634;28;20057;-70
2022/10/08 04:07:23;;;;;;;13.73;3.28;;;11.00;99.90;;;;;;5017600;28;20042;-70
2022/10/08 04:09:49;;;;;;;13.43;3.58;;;11.00;99.90;;;;;;5012499;28;20061;-72
2022/10/08 04:12:15;;;;;;;10.15;3.30;;;11.00;99.90;;;;;;4997757;28;20097;-71
2022/10/08 04:14:40;;;;;;;12.93;3.20;;;10.90;99.90;;;;;;4981111;28;20167;-72
2022/10/08 04:17:06;;;;;;;8.10;3.13;;;11.10;99.90;;;;;;4999742;28;20054;-73
2022/10/08 04:19:31;;;;;;;11.38;2.92;;;11.00;99.90;;;;;;5017267;28;20045;-71
2022/10/08 04:21:57;;;;;;;9.82;2.97;;;10.80;99.90;;;;;;5017660;28;20103;-72
2022/10/08 04:24:22;;;;;;;9.30;3.53;;;10.80;99.90;;;;;;5017370;28;20332;-71
2022/10/08 04:26:48;;;;;;;13.57;4.00;;;10.70;99.90;;;;;;5016966;28;20049;-72
2022/10/08 04:29:14;;;;;;;13.77;3.50;;;10.70;99.90;;;;;;5017057;28;20085;-72
2022/10/08 04:31:39;;;;;;;13.43;3.00;;;10.60;99.90;;;;;;5016628;28;20056;-71
2022/10/08 04:34:05;;;;;;;12.45;3.30;;;10.60;99.90;;;;;;5016726;28;20049;-71
2022/10/08 04:36:31;;;;;;;12.02;3.33;;;10.60;99.90;;;;;;5017228;28;20374;-71
2022/10/08 04:38:57;;;;;;;8.88;2.95;;;10.60;99.90;;;;;;4999716;28;20057;-71
2022/10/08 04:41:25;;;;;;;11.05;3.35;;;10.50;99.90;;;;;;5000283;28;20429;-72
2022/10/08 04:43:51;;;;;;;15.77;3.88;;;10.50;99.90;;;;;;5017067;28;20064;-72
2022/10/08 04:46:19;;;;;;;9.13;2.85;;;10.50;99.90;;;;;;5016589;28;20447;-72
2022/10/08 04:48:50;;;;;;;16.35;3.63;;;10.40;99.90;;;;;;5016220;28;20439;-72
2022/10/08 04:51:17;;;;;;;13.77;3.50;;;10.40;99.90;;;;;;5016644;28;20037;-72
2022/10/08 04:53:43;;;;;;;13.30;3.53;;;10.40;99.90;;;;;;4994870;28;20060;-72
2022/10/08 04:56:14;;;;;;;13.30;3.88;;;10.40;99.90;;;;;;4997596;28;20050;-71
2022/10/08 04:58:40;;;;;;;10.00;3.05;;;10.30;99.90;;;;;;5016482;28;20088;-71
2022/10/08 05:01:08;;;;;;;12.93;3.70;;;10.30;99.90;;;;;;5016442;28;20112;-71
2022/10/08 05:03:38;;;;;;;10.65;3.30;;;10.30;99.90;;;;;;5016562;28;20053;-71
2022/10/08 05:06:05;;;;;;;6.28;2.97;;;10.30;99.90;;;;;;5016100;28;20050;-72
2022/10/08 05:08:31;;;;;;;11.65;3.28;;;10.20;99.90;;;;;;5016272;28;20116;-71
2022/10/08 05:10:56;;;;;;;11.57;3.63;;;10.20;99.90;;;;;;4999425;28;20072;-72
2022/10/08 05:13:22;;;;;;;12.60;3.35;;;10.20;99.90;;;;;;5016428;28;20038;-74
2022/10/08 05:15:47;;;;;;;11.05;3.60;;;10.20;99.90;;;;;;4999087;28;20066;-71
2022/10/08 05:18:14;;;;;;;15.00;4.78;;;10.10;99.90;;;;;;4998594;28;20053;-70
2022/10/08 05:20:39;;;;;;;14.73;4.43;;;10.20;99.90;;;;;;4998626;28;20050;-71
2022/10/08 05:23:06;;;;;;;11.27;4.18;;;10.20;99.90;;;;;;4998646;28;20520;-73
2022/10/08 05:25:32;;;;;;;13.68;4.05;;;10.30;99.90;;;;;;5016275;28;20054;-71
2022/10/08 05:27:58;;;;;;;10.93;3.85;;;10.10;99.90;;;;;;4999085;28;20052;-71
2022/10/08 05:30:23;;;;;;;12.75;4.22;;;10.10;99.90;;;;;;4998863;28;20042;-71
2022/10/08 05:32:49;;;;;;;11.98;3.67;;;10.20;99.90;;;;;;5015480;28;20474;-73
2022/10/08 05:35:15;;;;;;;12.07;4.20;;;10.10;99.90;;;;;;5015005;28;20046;-72
2022/10/08 05:37:40;;;;;;;12.02;4.18;;;10.10;99.90;;;;;;5015226;28;20454;-70
2022/10/08 05:40:06;;;;;;;13.63;4.28;;;10.10;99.90;;;;;;4995152;28;20061;-70
2022/10/08 05:42:32;;;;;;;10.85;3.33;;;10.10;99.90;;;;;;4995918;28;20064;-71
2022/10/08 05:44:57;;;;;;;14.73;4.05;;;10.10;99.90;;;;;;5004239;28;20378;-70
2022/10/08 05:47:23;;;;;;;12.68;4.03;;;10.10;99.90;;;;;;4996169;28;20050;-71
2022/10/08 05:49:48;;;;;;;13.45;3.42;;;10.10;99.90;;;;;;4978818;28;20053;-71
2022/10/08 05:52:14;;;;;;;8.95;3.70;;;10.10;99.90;;;;;;4995788;28;20129;-72
2022/10/08 05:54:40;;;;;;;14.50;4.00;;;10.10;99.90;;;;;;4996142;28;20492;-71
2022/10/08 05:57:05;;;;;;;12.43;4.07;;;10.10;99.90;;;;;;4995949;28;20089;-71
2022/10/08 05:59:31;;;;;;;15.55;3.67;;;10.10;99.90;;;;;;5010188;28;20050;-71
2022/10/08 06:01:56;;;;;;;9.88;3.92;;;10.10;99.90;;;;;;4997324;28;20120;-71
2022/10/08 06:04:22;;;;;;;14.27;3.45;;;10.00;99.90;;;;;;4998308;28;20475;-71
2022/10/08 06:06:48;;;;;;;13.88;3.47;;;10.00;99.90;;;;;;5015022;28;20057;-71
2022/10/08 06:09:17;;;;;;;14.00;3.53;;;10.00;99.90;;;;;;5015530;28;20149;-73
2022/10/08 06:11:43;;;;;;;11.77;3.85;;;10.00;99.90;;;;;;4964766;28;20481;-71
2022/10/08 06:14:11;;;;;;;11.30;3.60;;;10.00;99.90;;;;;;5015362;28;20108;-73
2022/10/08 06:16:37;;;;;;;16.08;3.70;;;10.00;99.90;;;;;;5015317;28;20041;-71
2022/10/08 06:19:04;;;;;;;12.18;4.50;;;10.00;99.90;;;;;;5014982;28;20058;-72
2022/10/08 06:21:30;;;;;;;10.27;3.10;;;10.00;99.90;;;;;;4997722;28;20450;-71
2022/10/08 06:23:58;;;;;;;10.40;3.20;;;10.00;99.90;;;;;;5015623;28;20073;-71
2022/10/08 06:26:29;;;;;;;14.35;3.53;;;10.00;99.90;;;;;;5015532;28;20136;-71
2022/10/08 06:28:55;;;;;;;14.88;3.15;;;10.10;99.90;;;;;;5015332;28;20041;-71
2022/10/08 06:31:21;;;;;;;8.75;3.10;;;10.20;99.90;;;;;;5014966;28;20053;-71
2022/10/08 06:33:47;;;;;;;19.40;3.40;;;10.10;99.90;;;;;;4997486;28;20458;-72
2022/10/08 06:36:17;;;;;;;17.23;3.30;;;10.10;99.90;;;;;;5016423;28;20204;-72
2022/10/08 06:38:47;;;;;;;14.73;4.05;;;10.20;99.90;;;;;;4997845;28;20116;-71
2022/10/08 06:41:13;;;;;;;22.98;4.10;;;10.20;99.90;;;;;;5011655;28;20214;-71
2022/10/08 06:43:38;;;;;;;14.57;3.30;;;10.20;99.90;;;;;;5008656;28;20579;-70
2022/10/08 06:46:05;;;;;;;12.68;3.70;;;10.30;99.90;;;;;;5014996;28;20366;-71
2022/10/08 06:48:31;;;;;;;13.05;3.25;;;10.40;99.90;;;;;;5015211;28;20057;-72
2022/10/08 06:50:59;;;;;;;12.30;3.20;;;10.60;99.90;;;;;;5014918;28;20046;-72
2022/10/08 06:53:25;;;;;;;13.88;4.13;;;10.80;99.90;;;;;;5014809;28;20115;-71
2022/10/08 06:56:03;;;;;;;9.55;2.88;;;10.90;99.90;;;;;;5014512;28;20513;-70
2022/10/08 06:58:28;;;;;;;11.82;2.72;;;10.90;99.90;;;;;;5015009;28;20050;-71
2022/10/08 07:01:06;;;;;;;13.85;3.05;;;11.00;99.90;;;;;;4997239;28;20348;-72
2022/10/08 07:03:32;;;;;;;9.27;2.30;;;11.10;99.90;;;;;;5015102;28;20045;-71
2022/10/08 07:06:03;;;;;;;17.77;3.08;;;11.30;99.90;;;;;;5014800;28;20120;-71
2022/10/08 07:08:30;;;;;;;10.57;2.70;;;11.20;99.90;;;;;;5014600;28;20049;-70
2022/10/08 07:11:08;;;;;;;10.43;2.78;;;11.30;99.90;;;;;;5014834;28;20418;-72
2022/10/08 07:13:34;;;;;;;11.60;2.83;;;11.40;99.90;;;;;;4999975;28;20060;-72
2022/10/08 07:16:13;;;;;;;15.13;3.55;;;11.60;99.90;;;;;;4995695;28;20053;-69
2022/10/08 07:18:40;;;;;;;12.55;2.30;;;11.60;99.90;;;;;;5016463;28;20050;-70
2022/10/08 07:21:07;;;;;;;9.13;2.08;;;11.60;99.90;;;;;;5009797;28;20077;-70
2022/10/08 07:23:33;;;;;;;12.55;2.47;;;11.60;99.90;;;;;;5011951;28;20123;-68
2022/10/08 07:26:14;;;;;;;11.48;2.10;;;11.60;99.90;;;;;;5000621;28;20065;-70
2022/10/08 07:28:43;;;;;;;10.00;2.50;;;11.50;99.90;;;;;;5001190;28;20144;-68
2022/10/08 07:31:13;;;;;;;13.13;3.53;;;11.70;99.90;;;;;;5018066;28;20046;-68
2022/10/08 07:33:41;;;;;;;12.38;3.00;;;11.50;99.90;;;;;;5018136;28;20112;-69
2022/10/08 07:36:16;;;;;;;18.67;3.08;;;11.50;99.90;;;;;;5018163;28;20042;-72
2022/10/08 07:38:41;;;;;;;12.15;3.20;;;11.50;99.90;;;;;;5017660;28;20056;-68
2022/10/08 07:41:09;;;;;;;12.18;2.20;;;11.50;99.90;;;;;;5018011;28;20365;-69
2022/10/08 07:43:35;;;;;;;12.55;2.55;;;11.50;99.90;;;;;;5000158;28;20085;-69
2022/10/08 07:46:04;;;;;;;10.32;2.67;;;11.50;99.90;;;;;;5011997;28;20061;-70
2022/10/08 07:48:29;;;;;;;12.18;2.42;;;11.50;99.90;;;;;;5018133;28;20049;-69
2022/10/08 07:51:01;;;;;;;12.52;2.30;;;11.40;99.90;;;;;;5017574;28;20042;-69
2022/10/08 07:53:26;;;;;;;9.45;2.22;;;11.60;99.90;;;;;;5017741;28;20049;-72
2022/10/08 07:55:55;;;;;;;10.13;2.40;;;11.80;99.90;;;;;;5014335;28;20395;-70
2022/10/08 07:58:21;;;;;;;9.95;2.40;;;11.70;99.90;;;;;;5017340;28;20060;-70
2022/10/08 08:00:46;;;;;;;9.88;2.20;;;11.70;99.90;;;;;;5018006;28;20042;-68
2022/10/08 08:03:13;;;;;;;11.45;2.90;;;11.70;99.90;;;;;;5017847;28;20122;-69
2022/10/08 08:05:39;;;;;;;8.40;2.35;;;11.70;99.90;;;;;;5000311;28;20351;-70
2022/10/08 08:08:04;;;;;;;13.95;2.97;;;11.70;99.90;;;;;;5017423;28;20123;-70
2022/10/08 08:10:30;;;;;;;11.88;2.83;;;11.70;99.90;;;;;;5017184;28;20046;-69
2022/10/08 08:12:56;;;;;;;9.55;2.72;;;11.70;99.90;;;;;;5017293;28;20077;-69
2022/10/08 08:15:21;;;;;;;11.38;3.15;;;11.70;99.90;;;;;;5017350;28;20049;-69
2022/10/08 08:17:47;;;;;;;15.65;2.70;;;11.80;99.90;;;;;;5017384;28;20061;-69
2022/10/08 08:20:13;;;;;;;8.27;2.30;;;11.80;99.90;;;;;;5017108;28;20038;-71
2022/10/08 08:22:38;;;;;;;10.23;2.42;;;11.80;99.90;;;;;;5017434;28;20451;-69
2022/10/08 08:25:04;;;;;;;8.30;2.05;;;11.90;99.90;;;;;;5017276;28;20049;-68
2022/10/08 08:27:30;;;;;;;12.10;2.45;;;11.90;99.90;;;;;;5016971;28;20050;-69
2022/10/08 08:29:55;;;;;;;11.52;2.50;;;12.00;99.90;;;;;;5016777;28;20193;-70
2022/10/08 08:32:21;;;;;;;14.93;3.05;;;12.10;99.90;;;;;;4999612;28;20470;-69
2022/10/08 08:34:47;;;;;;;10.55;2.47;;;12.20;99.90;;;;;;5016936;28;20042;-69
2022/10/08 08:37:13;;;;;;;8.32;2.33;;;12.30;99.90;;;;;;5017309;28;20111;-69
2022/10/08 08:39:38;;;;;;;10.75;2.28;;;12.30;99.90;;;;;;5017115;28;20042;-70
2022/10/08 08:42:26;;;;;;;9.10;2.28;;;12.40;99.90;;;;;;5016725;28;20086;-70
2022/10/08 08:45:01;;;;;;;6.97;1.85;;;12.40;99.90;;;;;;4999311;28;20132;-68
2022/10/08 08:47:41;;;;;;;8.95;2.58;;;12.50;99.90;;;;;;5016110;28;20421;-70
2022/10/08 08:50:30;;;;;;;7.80;2.42;;;12.60;99.90;;;;;;5016418;28;20455;-71
2022/10/08 08:52:56;;;;;;;10.32;2.55;;;12.70;99.90;;;;;;5017055;28;20478;-69
2022/10/08 08:55:36;;;;;;;12.68;2.00;;;12.70;99.90;;;;;;5016709;28;20125;-68
2022/10/08 08:58:26;;;;;;;9.75;2.28;;;12.80;99.90;;;;;;5017157;28;20068;-69
2022/10/08 09:01:05;;;;;;;8.70;1.95;;;12.80;99.90;;;;;;5016452;28;20088;-70
2022/10/08 09:03:39;;;;;;;10.40;2.30;;;12.80;99.90;;;;;;5015979;28;20053;-70
2022/10/08 09:06:12;;;;;;;11.93;2.03;;;13.00;99.90;;;;;;5015886;28;20100;-70
2022/10/08 09:08:49;;;;;;;13.13;2.60;;;13.00;99.90;;;;;;5016020;28;20467;-70
2022/10/08 09:11:18;;;;;;;12.60;2.00;;;13.10;99.90;;;;;;5016598;28;20327;-69
2022/10/08 09:14:10;;;;;;;9.85;1.92;;;13.10;99.90;;;;;;5011065;28;20043;-71
2022/10/08 09:16:37;;;;;;;9.02;2.10;;;13.10;99.90;;;;;;4987366;28;20065;-72
2022/10/08 09:19:03;;;;;;;11.15;2.13;;;13.20;99.90;;;;;;5016245;28;20095;-68
2022/10/08 09:21:31;;;;;;;12.18;3.38;;;13.20;99.90;;;;;;4998856;28;20463;-69
2022/10/08 09:23:57;;;;;;;9.90;2.13;;;13.30;99.90;;;;;;5016153;28;20112;-71
2022/10/08 09:26:24;;;;;;;11.45;1.80;;;13.30;99.90;;;;;;5016166;28;20070;-73
2022/10/08 09:28:55;;;;;;;13.68;2.00;;;13.40;99.90;;;;;;5016479;28;20057;-66
2022/10/08 09:31:41;;;;;;;6.75;1.73;;;13.60;99.90;;;;;;5015035;28;20050;-69
2022/10/08 09:34:11;;;;;;;9.85;1.70;;;13.70;99.90;;;;;;5014781;28;20521;-69
2022/10/08 09:36:51;;;;;;;7.95;1.40;;;13.80;99.90;;;;;;5001788;28;20057;-70
2022/10/08 09:39:19;;;;;;;7.15;1.45;;;14.00;99.90;;;;;;4995943;28;20050;-69
2022/10/08 09:42:02;;;;;;;8.15;1.95;;;14.00;99.90;;;;;;4995245;28;20501;-71
2022/10/08 09:44:44;;;;;;;8.43;2.00;;;14.20;99.90;;;;;;4996057;28;20050;-70
2022/10/08 09:47:12;;;;;;;6.60;1.40;;;14.20;99.90;;;;;;5015465;28;20458;-70
2022/10/08 09:49:38;;;;;;;8.80;1.95;;;14.30;99.90;;;;;;5015793;28;20045;-70
2022/10/08 09:52:19;;;;;;;6.57;1.50;;;14.50;99.90;;;;;;5015652;28;20053;-69
2022/10/08 09:54:52;;;;;;;9.13;1.75;;;14.60;99.90;;;;;;5015449;28;20099;-70
2022/10/08 09:57:20;;;;;;;11.95;2.20;;;14.80;99.90;;;;;;5015357;28;20041;-69
2022/10/08 09:59:55;;;;;;;9.65;2.17;;;15.00;99.90;;;;;;5015160;28;20057;-71
2022/10/08 10:02:27;;;;;;;7.50;1.95;;;15.20;99.90;;;;;;5015634;28;20060;-69
2022/10/08 10:04:54;;;;;;;6.90;1.40;;;15.30;99.90;;;;;;5015426;28;20064;-69
2022/10/08 10:07:20;;;;;;;9.45;1.50;;;15.40;99.90;;;;;;5015257;28;20038;-68
2022/10/08 10:09:51;;;;;;;7.00;1.77;;;15.40;99.90;;;;;;5015262;28;20041;-70
2022/10/08 10:12:40;;;;;;;8.75;1.98;;;15.50;99.90;;;;;;5011840;28;20045;-70
2022/10/08 10:15:19;;;;;;;11.73;3.70;;;15.60;99.90;;;;;;5014365;28;20534;-70
2022/10/08 10:17:53;;;;;;;5.85;1.90;;;15.70;99.90;;;;;;5015517;28;20042;-70
2022/10/08 10:20:43;;;;;;;9.40;2.08;;;15.80;99.90;;;;;;5015106;28;20439;-69
2022/10/08 10:23:19;;;;;;;9.45;2.20;;;15.90;99.90;;;;;;5015104;28;20053;-69
2022/10/08 10:25:48;;;;;;;7.00;1.73;;;15.70;99.90;;;;;;5015026;28;20041;-69
2022/10/08 10:28:27;;;;;;;7.03;1.52;;;15.50;99.90;;;;;;5014889;28;20056;-69
2022/10/08 10:31:06;;;;;;;5.50;1.35;;;15.20;99.90;;;;;;5014694;28;20371;-68
2022/10/08 10:33:36;;;;;;;9.93;2.05;;;15.00;99.90;;;;;;5015064;28;20045;-71
2022/10/08 10:36:08;;;;;;;10.55;1.90;;;14.80;99.90;;;;;;5015347;28;20694;-70
2022/10/08 10:38:41;;;;;;;9.77;1.88;;;14.80;99.90;;;;;;5014958;28;20046;-70
2022/10/08 10:41:18;;;;;;;13.30;2.42;;;14.70;99.90;;;;;;4997922;28;20176;-69
2022/10/08 10:43:51;;;;;;;7.07;1.52;;;14.50;99.90;;;;;;4997096;28;20112;-70
2022/10/08 10:46:29;;;;;;;8.15;1.88;;;14.60;99.90;;;;;;4995211;28;20360;-69
2022/10/08 10:48:56;;;;;;;8.68;1.90;;;14.60;99.90;;;;;;4995259;28;20348;-72
2022/10/08 10:51:38;;;;;;;7.80;1.98;;;14.70;99.90;;;;;;5011232;28;20050;-69
2022/10/08 10:54:21;;;;;;;7.20;1.60;;;14.70;99.90;;;;;;5019059;28;20052;-72
2022/10/08 10:56:53;;;;;;;10.00;1.75;;;14.70;99.90;;;;;;5001199;28;20068;-71
2022/10/08 10:59:44;;;;;;;9.55;2.20;;;14.70;99.90;;;;;;5018876;28;20108;-68
2022/10/08 11:02:22;;;;;;;7.00;1.90;;;14.60;99.90;;;;;;5018692;28;20052;-70
2022/10/08 11:05:09;;;;;;;9.05;2.00;;;14.70;99.90;;;;;;5018876;28;20442;-71
2022/10/08 11:07:56;;;;;;;10.13;2.13;;;14.80;99.90;;;;;;5018805;28;20046;-72
2022/10/08 11:10:37;;;;;;;6.88;1.85;;;14.90;99.90;;;;;;5019025;28;20041;-72
2022/10/08 11:13:25;;;;;;;8.15;1.58;;;15.00;99.90;;;;;;5020014;28;20110;-70
2022/10/08 11:16:17;;;;;;;6.65;1.73;;;15.20;99.90;;;;;;4972534;28;20049;-70
2022/10/08 11:18:53;;;;;;;8.15;1.45;;;15.20;99.90;;;;;;5018310;28;20108;-69
2022/10/08 11:21:43;;;;;;;4.90;1.50;;;15.20;99.90;;;;;;5018400;28;20038;-70
2022/10/08 11:24:33;;;;;;;6.28;1.50;;;15.10;99.90;;;;;;5015979;28;20050;-69
2022/10/08 11:27:13;;;;;;;6.72;1.33;;;15.20;99.90;;;;;;5016300;28;20112;-69
2022/10/08 11:29:59;;;;;;;7.57;1.70;;;15.40;99.90;;;;;;5018225;28;20138;-70
2022/10/08 11:32:25;;;;;;;7.95;1.58;;;15.60;99.90;;;;;;5017620;28;20522;-72
2022/10/08 11:35:18;;;;;;;6.57;1.77;;;15.70;99.90;;;;;;5018524;28;20137;-69
2022/10/08 11:38:18;;;;;;;9.05;2.05;;;15.90;99.90;;;;;;5016032;28;20046;-69
2022/10/08 11:40:49;;;;;;;9.88;1.80;;;16.00;99.90;;;;;;4996541;28;20450;-70
2022/10/08 11:43:31;;;;;;;6.65;1.80;;;16.10;99.90;;;;;;5017884;28;20046;-69
2022/10/08 11:46:27;;;;;;;6.60;1.50;;;16.20;99.90;;;;;;5015737;28;20129;-70
2022/10/08 11:48:53;;;;;;;8.02;1.40;;;16.30;99.90;;;;;;5014287;28;20056;-68
2022/10/08 11:51:19;;;;;;;10.27;2.10;;;16.40;99.90;;;;;;5017034;28;20046;-70
2022/10/08 11:54:02;;;;;;;10.77;2.83;;;16.60;99.90;;;;;;5016705;28;20056;-70
2022/10/08 11:56:28;;;;;;;;;;;16.70;99.90;;;;;;5016915;28;20374;-73
2022/10/08 11:58:58;;;;;;;7.45;1.55;;;16.80;99.90;;;;;;5016666;28;19921;-73
2022/10/08 12:01:24;;;;;;;7.47;2.10;;;16.90;99.90;;;;;;4999166;28;20045;-69
2022/10/08 12:04:21;;;;;;;8.43;1.88;;;16.90;99.90;;;;;;4999138;28;20042;-70
2022/10/08 12:06:59;;;;;;;7.40;1.45;;;17.00;99.90;;;;;;5004929;28;20065;-70
2022/10/08 12:09:24;;;;;;;6.50;1.65;;;17.00;99.90;;;;;;4999224;28;20033;-69
2022/10/08 12:11:52;;;;;;;4.95;1.30;;;17.10;99.90;;;;;;5016955;28;20072;-70
2022/10/08 12:14:17;;;;;;;11.93;2.50;;;16.80;99.90;;;;;;5017157;28;20132;-69
2022/10/08 12:16:46;;;;;;;6.50;1.73;;;16.60;99.90;;;;;;4999689;28;20129;-70
2022/10/08 12:19:37;;;;;;;7.53;1.65;;;16.40;99.90;;;;;;5016709;28;20038;-70
2022/10/08 12:22:07;;;;;;;5.78;1.40;;;16.40;99.90;;;;;;5016359;28;20057;-70
2022/10/08 12:24:38;;;;;;;7.90;1.70;;;16.30;99.90;;;;;;5016122;28;20117;-69
2022/10/08 12:27:16;;;;;;;8.32;1.90;;;16.20;99.90;;;;;;5016118;28;20046;-70
2022/10/08 12:30:05;;;;;;;11.65;3.17;;;16.10;99.90;;;;;;5016871;28;20128;-69
2022/10/08 12:32:42;;;;;;;9.80;1.67;;;15.70;99.90;;;;;;5012806;28;20049;-69
2022/10/08 12:35:24;;;;;;;5.95;1.77;;;15.30;99.90;;;;;;5016692;28;20374;-69
2022/10/08 12:38:19;;;;;;;9.65;1.67;;;15.10;99.90;;;;;;5016931;28;20042;-71
2022/10/08 12:40:51;;;;;;;10.18;2.22;;;15.00;99.90;;;;;;5003395;28;20367;-70
2022/10/08 12:43:46;;;;;;;9.07;1.83;;;14.90;99.90;;;;;;5016538;28;20064;-71
2022/10/08 12:46:30;;;;;;;11.10;1.70;;;14.90;99.90;;;;;;5016391;28;20077;-69
2022/10/08 12:49:14;;;;;;;6.95;1.63;;;14.90;99.90;;;;;;5016189;28;20446;-70
2022/10/08 12:51:58;;;;;;;9.80;1.83;;;14.80;99.90;;;;;;5016429;28;20041;-70
2022/10/08 12:54:28;;;;;;;9.63;1.98;;;14.80;99.90;;;;;;5016218;28;20250;-70
2022/10/08 12:56:54;;;;;;;11.32;2.13;;;15.00;99.90;;;;;;5016355;28;20057;-70
2022/10/08 12:59:22;;;;;;;11.43;1.88;;;15.20;99.90;;;;;;5015830;28;20042;-71
2022/10/08 13:01:50;;;;;;;8.68;1.75;;;15.40;99.90;;;;;;5015851;28;20049;-70
2022/10/08 13:04:31;;;;;;;6.70;1.65;;;15.40;99.90;;;;;;5016132;28;20065;-70
2022/10/08 13:06:56;;;;;;;4.40;1.40;;;15.50;99.90;;;;;;5016110;28;20050;-73